Terminal Aerodrome Forecast
Issued by NWS

Home | Current Version | Previous Version | Text Only | Print | Product List | Glossary On
Versions: 1 2 3 4 5 6 7 8 9 10 11 12 13 14 15 16 17 18 19 20 21 22 23 24 25 26 27 28
514
FTUS42 KCAE 300530
TAFCUB
TAF
KCUB 300530Z 3006/3106 35005KT P6SM VCSH OVC015
      TEMPO 3008/3012 5SM -RA OVC007
     FM301800 34007KT P6SM VCSH BKN035
     FM310000 VRB03KT P6SM SCT040=

USA.gov is the U.S. government's official web portal to all federal, state and local government web resources and services.